sensor_id;sensor_type;location;lat;lon;timestamp;pressure;altitude;pressure_sealevel;temperature;humidity
4085;BME280;2057;50.858;6.572;2023-07-13T00:00:27;100311.84;;;16.50;77.97
4085;BME280;2057;50.858;6.572;2023-07-13T00:02:53;100309.28;;;16.50;79.51
4085;BME280;2057;50.858;6.572;2023-07-13T00:05:20;100319.13;;;16.31;79.44
4085;BME280;2057;50.858;6.572;2023-07-13T00:07:48;100312.88;;;16.20;81.44
4085;BME280;2057;50.858;6.572;2023-07-13T00:10:13;100313.22;;;15.97;82.03
4085;BME280;2057;50.858;6.572;2023-07-13T00:12:39;100309.81;;;15.98;82.45
4085;BME280;2057;50.858;6.572;2023-07-13T00:15:09;100318.56;;;15.75;83.49
4085;BME280;2057;50.858;6.572;2023-07-13T00:17:36;100315.69;;;15.94;83.40
4085;BME280;2057;50.858;6.572;2023-07-13T00:20:04;100319.28;;;16.03;82.03
4085;BME280;2057;50.858;6.572;2023-07-13T00:22:29;100313.53;;;16.11;82.59
4085;BME280;2057;50.858;6.572;2023-07-13T00:24:55;100313.81;;;16.24;81.95
4085;BME280;2057;50.858;6.572;2023-07-13T00:27:24;100316.84;;;16.07;81.04
4085;BME280;2057;50.858;6.572;2023-07-13T00:29:54;100325.16;;;16.34;81.63
4085;BME280;2057;50.858;6.572;2023-07-13T00:32:19;100319.59;;;16.15;81.57
4085;BME280;2057;50.858;6.572;2023-07-13T00:34:44;100323.44;;;15.97;82.51
4085;BME280;2057;50.858;6.572;2023-07-13T00:37:10;100320.94;;;16.00;82.24
4085;BME280;2057;50.858;6.572;2023-07-13T00:39:36;100318.22;;;15.93;83.07
4085;BME280;2057;50.858;6.572;2023-07-13T00:42:03;100313.47;;;16.10;81.16
4085;BME280;2057;50.858;6.572;2023-07-13T00:44:29;100317.09;;;16.18;81.62
4085;BME280;2057;50.858;6.572;2023-07-13T00:46:55;100318.09;;;15.88;82.37
4085;BME280;2057;50.858;6.572;2023-07-13T00:49:26;100324.31;;;15.98;82.33
4085;BME280;2057;50.858;6.572;2023-07-13T00:52:07;100321.84;;;16.03;82.14
4085;BME280;2057;50.858;6.572;2023-07-13T00:54:37;100330.25;;;15.63;82.82
4085;BME280;2057;50.858;6.572;2023-07-13T00:57:06;100327.31;;;15.83;82.67
4085;BME280;2057;50.858;6.572;2023-07-13T00:59:34;100325.13;;;15.63;83.38
4085;BME280;2057;50.858;6.572;2023-07-13T01:02:00;100320.50;;;15.48;84.87
4085;BME280;2057;50.858;6.572;2023-07-13T01:04:26;100308.31;;;15.40;84.44
4085;BME280;2057;50.858;6.572;2023-07-13T01:06:52;100319.16;;;15.29;86.08
4085;BME280;2057;50.858;6.572;2023-07-13T01:09:19;100309.06;;;15.35;86.12
4085;BME280;2057;50.858;6.572;2023-07-13T01:11:48;100312.53;;;15.37;86.47
4085;BME280;2057;50.858;6.572;2023-07-13T01:14:14;100307.22;;;15.30;86.97
4085;BME280;2057;50.858;6.572;2023-07-13T01:16:42;100309.72;;;15.28;86.11
4085;BME280;2057;50.858;6.572;2023-07-13T01:19:35;100313.44;;;15.08;87.57
4085;BME280;2057;50.858;6.572;2023-07-13T01:22:02;100306.34;;;15.29;87.15
4085;BME280;2057;50.858;6.572;2023-07-13T01:24:30;100303.94;;;15.35;86.10
4085;BME280;2057;50.858;6.572;2023-07-13T01:26:55;100296.97;;;15.30;86.56
4085;BME280;2057;50.858;6.572;2023-07-13T01:29:21;100302.78;;;15.24;86.43
4085;BME280;2057;50.858;6.572;2023-07-13T01:31:46;100306.28;;;15.28;86.44
4085;BME280;2057;50.858;6.572;2023-07-13T01:34:12;100306.88;;;15.49;85.37
4085;BME280;2057;50.858;6.572;2023-07-13T01:36:38;100301.41;;;15.37;85.84
4085;BME280;2057;50.858;6.572;2023-07-13T01:39:03;100301.53;;;15.42;85.80
4085;BME280;2057;50.858;6.572;2023-07-13T01:41:29;100302.44;;;15.42;84.94
4085;BME280;2057;50.858;6.572;2023-07-13T01:43:54;100299.38;;;15.57;84.08
4085;BME280;2057;50.858;6.572;2023-07-13T01:46:19;100300.56;;;15.36;85.34
4085;BME280;2057;50.858;6.572;2023-07-13T01:48:45;100302.91;;;15.29;86.47
4085;BME280;2057;50.858;6.572;2023-07-13T01:51:10;100298.22;;;14.82;89.26
4085;BME280;2057;50.858;6.572;2023-07-13T01:53:36;100292.78;;;15.00;88.01
4085;BME280;2057;50.858;6.572;2023-07-13T01:56:02;100296.03;;;14.94;88.59
4085;BME280;2057;50.858;6.572;2023-07-13T01:58:27;100305.09;;;15.15;87.25
4085;BME280;2057;50.858;6.572;2023-07-13T02:00:52;100302.34;;;15.07;87.25
4085;BME280;2057;50.858;6.572;2023-07-13T02:03:18;100310.31;;;15.18;86.95
4085;BME280;2057;50.858;6.572;2023-07-13T02:05:45;100303.44;;;15.17;86.78
4085;BME280;2057;50.858;6.572;2023-07-13T02:08:10;100310.16;;;15.12;87.20
4085;BME280;2057;50.858;6.572;2023-07-13T02:10:37;100319.28;;;15.03;86.91
4085;BME280;2057;50.858;6.572;2023-07-13T02:13:05;100313.16;;;14.98;88.13
4085;BME280;2057;50.858;6.572;2023-07-13T02:15:30;100319.59;;;15.14;88.09
4085;BME280;2057;50.858;6.572;2023-07-13T02:17:56;100319.44;;;15.08;87.94
4085;BME280;2057;50.858;6.572;2023-07-13T02:20:22;100318.13;;;14.92;88.53
4085;BME280;2057;50.858;6.572;2023-07-13T02:22:47;100324.59;;;14.81;87.93
4085;BME280;2057;50.858;6.572;2023-07-13T02:25:13;100313.88;;;14.64;88.38
4085;BME280;2057;50.858;6.572;2023-07-13T02:27:39;100324.97;;;14.93;88.22
4085;BME280;2057;50.858;6.572;2023-07-13T02:30:05;100315.78;;;14.69;89.12
4085;BME280;2057;50.858;6.572;2023-07-13T02:32:30;100323.13;;;14.60;89.16
4085;BME280;2057;50.858;6.572;2023-07-13T02:34:56;100313.81;;;14.62;89.40
4085;BME280;2057;50.858;6.572;2023-07-13T02:37:21;100321.28;;;14.56;89.09
4085;BME280;2057;50.858;6.572;2023-07-13T02:39:47;100312.38;;;14.70;89.32
4085;BME280;2057;50.858;6.572;2023-07-13T02:42:13;100315.38;;;14.57;89.87
4085;BME280;2057;50.858;6.572;2023-07-13T02:44:38;100318.63;;;14.53;89.55
4085;BME280;2057;50.858;6.572;2023-07-13T02:47:03;100312.34;;;14.41;90.33
4085;BME280;2057;50.858;6.572;2023-07-13T02:49:29;100319.03;;;14.10;91.52
4085;BME280;2057;50.858;6.572;2023-07-13T02:51:54;100313.66;;;14.01;93.49
4085;BME280;2057;50.858;6.572;2023-07-13T02:54:19;100307.09;;;14.09;92.44
4085;BME280;2057;50.858;6.572;2023-07-13T02:56:45;100311.94;;;14.00;93.95
4085;BME280;2057;50.858;6.572;2023-07-13T02:59:10;100315.91;;;13.92;92.98
4085;BME280;2057;50.858;6.572;2023-07-13T03:01:36;100324.09;;;13.82;94.56
4085;BME280;2057;50.858;6.572;2023-07-13T03:04:01;100322.16;;;14.00;93.92
4085;BME280;2057;50.858;6.572;2023-07-13T03:06:27;100328.28;;;13.79;95.04
4085;BME280;2057;50.858;6.572;2023-07-13T03:08:55;100329.91;;;13.77;95.53
4085;BME280;2057;50.858;6.572;2023-07-13T03:11:21;100325.00;;;13.84;96.77
4085;BME280;2057;50.858;6.572;2023-07-13T03:13:47;100323.41;;;13.87;95.97
4085;BME280;2057;50.858;6.572;2023-07-13T03:16:14;100328.66;;;13.92;95.48
4085;BME280;2057;50.858;6.572;2023-07-13T03:18:41;100323.00;;;14.01;95.26
4085;BME280;2057;50.858;6.572;2023-07-13T03:21:06;100326.06;;;14.18;93.93
4085;BME280;2057;50.858;6.572;2023-07-13T03:23:32;100329.50;;;14.18;93.47
4085;BME280;2057;50.858;6.572;2023-07-13T03:26:10;100325.03;;;14.11;94.10
4085;BME280;2057;50.858;6.572;2023-07-13T03:28:36;100330.63;;;14.26;94.07
4085;BME280;2057;50.858;6.572;2023-07-13T03:31:17;100333.53;;;14.11;94.74
4085;BME280;2057;50.858;6.572;2023-07-13T03:33:43;100328.88;;;13.98;94.62
4085;BME280;2057;50.858;6.572;2023-07-13T03:36:15;100334.84;;;13.99;95.17
4085;BME280;2057;50.858;6.572;2023-07-13T03:38:45;100335.00;;;13.77;96.93
4085;BME280;2057;50.858;6.572;2023-07-13T03:41:11;100341.34;;;13.63;97.41
4085;BME280;2057;50.858;6.572;2023-07-13T03:43:39;100340.09;;;13.77;96.70
4085;BME280;2057;50.858;6.572;2023-07-13T03:46:04;100342.78;;;13.80;97.63
4085;BME280;2057;50.858;6.572;2023-07-13T03:48:29;100334.31;;;13.82;97.57
4085;BME280;2057;50.858;6.572;2023-07-13T03:50:55;100347.44;;;13.94;96.93
4085;BME280;2057;50.858;6.572;2023-07-13T03:53:20;100340.75;;;13.98;97.34
4085;BME280;2057;50.858;6.572;2023-07-13T03:55:45;100353.63;;;14.01;97.44
4085;BME280;2057;50.858;6.572;2023-07-13T03:58:36;100351.06;;;14.26;95.89
4085;BME280;2057;50.858;6.572;2023-07-13T04:01:04;100353.91;;;14.08;97.28
4085;BME280;2057;50.858;6.572;2023-07-13T04:03:31;100349.06;;;14.18;97.68
4085;BME280;2057;50.858;6.572;2023-07-13T04:05:58;100350.56;;;14.11;97.79
4085;BME280;2057;50.858;6.572;2023-07-13T04:08:25;100352.44;;;14.17;97.62
4085;BME280;2057;50.858;6.572;2023-07-13T04:10:51;100355.31;;;14.26;97.35
4085;BME280;2057;50.858;6.572;2023-07-13T04:13:16;100359.81;;;14.35;97.32
4085;BME280;2057;50.858;6.572;2023-07-13T04:15:41;100353.84;;;14.34;97.45
4085;BME280;2057;50.858;6.572;2023-07-13T04:18:07;100361.44;;;14.33;98.24
4085;BME280;2057;50.858;6.572;2023-07-13T04:20:32;100352.88;;;14.31;98.56
4085;BME280;2057;50.858;6.572;2023-07-13T04:22:58;100365.50;;;14.53;98.19
4085;BME280;2057;50.858;6.572;2023-07-13T04:25:23;100364.06;;;14.62;98.35
4085;BME280;2057;50.858;6.572;2023-07-13T04:27:49;100371.47;;;14.54;97.90
4085;BME280;2057;50.858;6.572;2023-07-13T04:30:17;100366.44;;;14.55;98.10
4085;BME280;2057;50.858;6.572;2023-07-13T04:32:43;100363.09;;;14.58;98.73
4085;BME280;2057;50.858;6.572;2023-07-13T04:35:08;100369.25;;;14.65;99.12
4085;BME280;2057;50.858;6.572;2023-07-13T04:37:33;100368.00;;;14.79;98.56
4085;BME280;2057;50.858;6.572;2023-07-13T04:40:00;100371.53;;;14.83;98.21
4085;BME280;2057;50.858;6.572;2023-07-13T04:42:26;100371.66;;;14.87;98.61
4085;BME280;2057;50.858;6.572;2023-07-13T04:44:51;100361.28;;;14.81;98.26
4085;BME280;2057;50.858;6.572;2023-07-13T04:47:17;100370.16;;;14.94;97.54
4085;BME280;2057;50.858;6.572;2023-07-13T04:49:44;100380.28;;;14.91;97.97
4085;BME280;2057;50.858;6.572;2023-07-13T04:52:09;100379.63;;;14.98;97.62
4085;BME280;2057;50.858;6.572;2023-07-13T04:54:35;100374.97;;;15.14;97.43
4085;BME280;2057;50.858;6.572;2023-07-13T04:57:04;100375.16;;;15.20;97.32
4085;BME280;2057;50.858;6.572;2023-07-13T04:59:33;100375.19;;;15.21;96.96
4085;BME280;2057;50.858;6.572;2023-07-13T05:01:58;100374.41;;;15.24;96.82
4085;BME280;2057;50.858;6.572;2023-07-13T05:04:24;100379.75;;;15.32;96.75
4085;BME280;2057;50.858;6.572;2023-07-13T05:06:49;100384.44;;;15.47;95.62
4085;BME280;2057;50.858;6.572;2023-07-13T05:09:15;100389.69;;;15.53;95.92
4085;BME280;2057;50.858;6.572;2023-07-13T05:11:40;100387.28;;;15.59;94.76
4085;BME280;2057;50.858;6.572;2023-07-13T05:14:05;100387.75;;;15.76;94.59
4085;BME280;2057;50.858;6.572;2023-07-13T05:16:31;100382.50;;;15.72;93.62
4085;BME280;2057;50.858;6.572;2023-07-13T05:18:57;100388.47;;;15.71;93.43
4085;BME280;2057;50.858;6.572;2023-07-13T05:21:23;100397.06;;;15.73;93.09
4085;BME280;2057;50.858;6.572;2023-07-13T05:23:49;100386.97;;;15.79;93.00
4085;BME280;2057;50.858;6.572;2023-07-13T05:26:15;100398.97;;;15.81;93.11
4085;BME280;2057;50.858;6.572;2023-07-13T05:28:40;100403.81;;;16.03;92.08
4085;BME280;2057;50.858;6.572;2023-07-13T05:31:08;100402.00;;;15.98;91.45
4085;BME280;2057;50.858;6.572;2023-07-13T05:33:33;100403.91;;;16.06;91.60
4085;BME280;2057;50.858;6.572;2023-07-13T05:35:59;100409.59;;;15.95;91.74
4085;BME280;2057;50.858;6.572;2023-07-13T05:38:26;100401.94;;;15.97;91.68
4085;BME280;2057;50.858;6.572;2023-07-13T05:40:53;100405.44;;;16.00;91.58
4085;BME280;2057;50.858;6.572;2023-07-13T05:43:19;100414.13;;;16.06;91.69
4085;BME280;2057;50.858;6.572;2023-07-13T05:45:44;100415.56;;;15.96;92.08
4085;BME280;2057;50.858;6.572;2023-07-13T05:48:09;100417.53;;;16.05;91.96
4085;BME280;2057;50.858;6.572;2023-07-13T05:50:35;100419.84;;;15.95;92.27
4085;BME280;2057;50.858;6.572;2023-07-13T05:53:00;100425.81;;;15.96;92.91
4085;BME280;2057;50.858;6.572;2023-07-13T05:55:26;100430.41;;;16.08;93.14
4085;BME280;2057;50.858;6.572;2023-07-13T05:57:51;100427.13;;;16.13;92.46
4085;BME280;2057;50.858;6.572;2023-07-13T06:00:16;100432.25;;;16.13;92.26
4085;BME280;2057;50.858;6.572;2023-07-13T06:02:42;100433.03;;;16.11;91.80
4085;BME280;2057;50.858;6.572;2023-07-13T06:05:07;100434.91;;;16.18;91.96
4085;BME280;2057;50.858;6.572;2023-07-13T06:07:33;100436.53;;;16.14;92.00
4085;BME280;2057;50.858;6.572;2023-07-13T06:09:58;100433.81;;;16.07;91.67
4085;BME280;2057;50.858;6.572;2023-07-13T06:12:24;100426.53;;;16.24;91.57
4085;BME280;2057;50.858;6.572;2023-07-13T06:14:50;100431.03;;;16.33;91.39
4085;BME280;2057;50.858;6.572;2023-07-13T06:17:15;100431.16;;;16.39;91.29
4085;BME280;2057;50.858;6.572;2023-07-13T06:19:41;100437.66;;;16.24;91.34
4085;BME280;2057;50.858;6.572;2023-07-13T06:22:08;100431.75;;;16.27;91.31
4085;BME280;2057;50.858;6.572;2023-07-13T06:24:33;100434.31;;;16.28;91.27
4085;BME280;2057;50.858;6.572;2023-07-13T06:26:59;100438.75;;;16.34;90.86
4085;BME280;2057;50.858;6.572;2023-07-13T06:29:24;100441.75;;;16.53;90.60
4085;BME280;2057;50.858;6.572;2023-07-13T06:31:49;100438.59;;;16.65;90.77
4085;BME280;2057;50.858;6.572;2023-07-13T06:34:15;100448.56;;;16.52;90.53
4085;BME280;2057;50.858;6.572;2023-07-13T06:36:40;100450.19;;;16.49;90.52
4085;BME280;2057;50.858;6.572;2023-07-13T06:39:06;100452.13;;;16.57;90.97
4085;BME280;2057;50.858;6.572;2023-07-13T06:41:32;100458.44;;;16.73;90.77
4085;BME280;2057;50.858;6.572;2023-07-13T06:43:58;100460.84;;;16.66;90.87
4085;BME280;2057;50.858;6.572;2023-07-13T06:46:24;100451.50;;;16.68;90.96
4085;BME280;2057;50.858;6.572;2023-07-13T06:48:49;100456.31;;;16.54;90.92
4085;BME280;2057;50.858;6.572;2023-07-13T06:51:15;100462.72;;;16.73;91.29
4085;BME280;2057;50.858;6.572;2023-07-13T06:53:42;100475.53;;;17.08;89.79
4085;BME280;2057;50.858;6.572;2023-07-13T06:56:09;100466.97;;;17.07;89.08
4085;BME280;2057;50.858;6.572;2023-07-13T06:58:36;100473.69;;;17.02;88.90
4085;BME280;2057;50.858;6.572;2023-07-13T07:01:02;100472.88;;;17.05;89.12
4085;BME280;2057;50.858;6.572;2023-07-13T07:03:28;100472.72;;;16.97;89.35
4085;BME280;2057;50.858;6.572;2023-07-13T07:05:53;100480.19;;;16.89;89.49
4085;BME280;2057;50.858;6.572;2023-07-13T07:08:19;100483.66;;;16.91;90.18
4085;BME280;2057;50.858;6.572;2023-07-13T07:10:46;100476.38;;;17.08;89.71
4085;BME280;2057;50.858;6.572;2023-07-13T07:13:11;100477.88;;;16.99;89.66
4085;BME280;2057;50.858;6.572;2023-07-13T07:15:37;100485.78;;;17.08;90.49
4085;BME280;2057;50.858;6.572;2023-07-13T07:18:03;100480.13;;;17.23;89.75
4085;BME280;2057;50.858;6.572;2023-07-13T07:20:28;100477.84;;;17.37;89.74
4085;BME280;2057;50.858;6.572;2023-07-13T07:22:55;100484.75;;;17.41;89.55
4085;BME280;2057;50.858;6.572;2023-07-13T07:25:21;100478.16;;;17.51;89.05
4085;BME280;2057;50.858;6.572;2023-07-13T07:27:46;100490.72;;;17.40;88.22
4085;BME280;2057;50.858;6.572;2023-07-13T07:30:12;100486.44;;;17.39;88.17
4085;BME280;2057;50.858;6.572;2023-07-13T07:32:37;100493.41;;;17.45;88.03
4085;BME280;2057;50.858;6.572;2023-07-13T07:35:03;100484.66;;;17.35;88.36
4085;BME280;2057;50.858;6.572;2023-07-13T07:37:30;100492.53;;;17.44;88.00
4085;BME280;2057;50.858;6.572;2023-07-13T07:39:56;100482.84;;;17.31;87.16
4085;BME280;2057;50.858;6.572;2023-07-13T07:42:21;100486.44;;;17.39;87.40
4085;BME280;2057;50.858;6.572;2023-07-13T07:44:46;100483.09;;;17.43;87.71
4085;BME280;2057;50.858;6.572;2023-07-13T07:47:12;100485.84;;;17.51;87.69
4085;BME280;2057;50.858;6.572;2023-07-13T07:49:37;100485.16;;;17.60;86.22
4085;BME280;2057;50.858;6.572;2023-07-13T07:52:03;100484.31;;;17.59;85.33
4085;BME280;2057;50.858;6.572;2023-07-13T07:54:28;100487.66;;;17.56;84.93
4085;BME280;2057;50.858;6.572;2023-07-13T07:56:54;100484.34;;;17.62;84.03
4085;BME280;2057;50.858;6.572;2023-07-13T07:59:19;100485.63;;;17.84;84.45
4085;BME280;2057;50.858;6.572;2023-07-13T08:01:47;100486.47;;;17.83;83.19
4085;BME280;2057;50.858;6.572;2023-07-13T08:04:15;100495.22;;;17.93;83.26
4085;BME280;2057;50.858;6.572;2023-07-13T08:06:41;100491.25;;;18.09;82.75
4085;BME280;2057;50.858;6.572;2023-07-13T08:09:06;100486.09;;;18.09;82.41
4085;BME280;2057;50.858;6.572;2023-07-13T08:11:33;100489.06;;;18.31;82.58
4085;BME280;2057;50.858;6.572;2023-07-13T08:13:58;100489.22;;;18.40;81.05
4085;BME280;2057;50.858;6.572;2023-07-13T08:16:24;100493.16;;;18.21;81.31
4085;BME280;2057;50.858;6.572;2023-07-13T08:18:49;100477.03;;;18.28;80.90
4085;BME280;2057;50.858;6.572;2023-07-13T08:21:15;100480.84;;;18.50;81.03
4085;BME280;2057;50.858;6.572;2023-07-13T08:23:40;100481.09;;;18.69;81.38
4085;BME280;2057;50.858;6.572;2023-07-13T08:26:05;100481.75;;;18.56;80.97
4085;BME280;2057;50.858;6.572;2023-07-13T08:28:31;100482.91;;;18.75;80.46
4085;BME280;2057;50.858;6.572;2023-07-13T08:31:02;100472.81;;;18.89;80.15
4085;BME280;2057;50.858;6.572;2023-07-13T08:33:27;100474.47;;;18.84;80.07
4085;BME280;2057;50.858;6.572;2023-07-13T08:35:53;100467.53;;;18.79;80.11
4085;BME280;2057;50.858;6.572;2023-07-13T08:38:18;100470.03;;;18.73;80.01
4085;BME280;2057;50.858;6.572;2023-07-13T08:40:45;100477.31;;;18.45;81.10
4085;BME280;2057;50.858;6.572;2023-07-13T08:43:20;100471.63;;;18.66;80.79
4085;BME280;2057;50.858;6.572;2023-07-13T08:46:15;100475.63;;;18.46;81.01
4085;BME280;2057;50.858;6.572;2023-07-13T08:48:52;100478.44;;;18.63;80.70
4085;BME280;2057;50.858;6.572;2023-07-13T08:53:53;100474.81;;;18.50;79.52
4085;BME280;2057;50.858;6.572;2023-07-13T08:56:23;100473.88;;;18.45;78.99
4085;BME280;2057;50.858;6.572;2023-07-13T08:58:54;100486.78;;;18.48;78.29
4085;BME280;2057;50.858;6.572;2023-07-13T09:01:34;100479.88;;;18.45;77.57
4085;BME280;2057;50.858;6.572;2023-07-13T09:04:18;100486.31;;;18.72;77.74
4085;BME280;2057;50.858;6.572;2023-07-13T09:10:23;100485.06;;;19.02;76.36
4085;BME280;2057;50.858;6.572;2023-07-13T09:15:24;100489.53;;;19.14;74.29
4085;BME280;2057;50.858;6.572;2023-07-13T09:17:55;100490.69;;;19.36;75.27
4085;BME280;2057;50.858;6.572;2023-07-13T09:22:48;100494.34;;;19.57;74.36
4085;BME280;2057;50.858;6.572;2023-07-13T09:25:34;100486.00;;;19.78;73.14
4085;BME280;2057;50.858;6.572;2023-07-13T09:28:25;100485.94;;;19.72;70.54
4085;BME280;2057;50.858;6.572;2023-07-13T09:31:15;100487.94;;;19.95;71.15
4085;BME280;2057;50.858;6.572;2023-07-13T09:33:41;100483.97;;;20.31;69.54
4085;BME280;2057;50.858;6.572;2023-07-13T09:36:28;100491.38;;;19.97;70.19
4085;BME280;2057;50.858;6.572;2023-07-13T09:39:14;100491.97;;;19.72;69.33
4085;BME280;2057;50.858;6.572;2023-07-13T09:42:01;100485.22;;;19.84;70.52
4085;BME280;2057;50.858;6.572;2023-07-13T09:44:34;100485.38;;;19.98;69.26
4085;BME280;2057;50.858;6.572;2023-07-13T09:47:00;100478.50;;;19.95;69.48
4085;BME280;2057;50.858;6.572;2023-07-13T09:49:33;100483.94;;;20.26;68.33
4085;BME280;2057;50.858;6.572;2023-07-13T09:52:06;100486.84;;;20.63;67.52
4085;BME280;2057;50.858;6.572;2023-07-13T09:54:36;100471.44;;;20.74;66.65
4085;BME280;2057;50.858;6.572;2023-07-13T09:57:03;100484.25;;;20.63;66.36
4085;BME280;2057;50.858;6.572;2023-07-13T09:59:42;100480.22;;;20.98;65.44
4085;BME280;2057;50.858;6.572;2023-07-13T10:05:06;100482.19;;;21.49;65.73
4085;BME280;2057;50.858;6.572;2023-07-13T10:07:38;100481.34;;;21.54;65.47
4085;BME280;2057;50.858;6.572;2023-07-13T10:10:17;100494.31;;;21.63;63.77
4085;BME280;2057;50.858;6.572;2023-07-13T10:12:43;100487.25;;;21.25;63.39
4085;BME280;2057;50.858;6.572;2023-07-13T10:15:15;100479.59;;;21.44;63.68
4085;BME280;2057;50.858;6.572;2023-07-13T10:17:41;100484.75;;;21.47;62.51
4085;BME280;2057;50.858;6.572;2023-07-13T10:20:09;100491.50;;;21.20;64.54
4085;BME280;2057;50.858;6.572;2023-07-13T10:25:18;100499.25;;;21.19;63.56
4085;BME280;2057;50.858;6.572;2023-07-13T10:27:44;100494.22;;;21.40;63.58
4085;BME280;2057;50.858;6.572;2023-07-13T10:30:28;100489.09;;;21.56;62.40
4085;BME280;2057;50.858;6.572;2023-07-13T10:32:58;100493.38;;;21.51;64.58
4085;BME280;2057;50.858;6.572;2023-07-13T10:35:26;100495.00;;;21.33;63.65
4085;BME280;2057;50.858;6.572;2023-07-13T10:40:37;100489.75;;;21.10;64.83
4085;BME280;2057;50.858;6.572;2023-07-13T10:43:12;100499.22;;;21.14;65.23
4085;BME280;2057;50.858;6.572;2023-07-13T10:45:40;100506.19;;;21.24;63.94
4085;BME280;2057;50.858;6.572;2023-07-13T10:48:06;100507.13;;;21.43;64.11
4085;BME280;2057;50.858;6.572;2023-07-13T10:50:38;100500.38;;;21.69;64.27
4085;BME280;2057;50.858;6.572;2023-07-13T10:53:30;100503.84;;;21.83;61.05
4085;BME280;2057;50.858;6.572;2023-07-13T10:55:59;100502.13;;;21.74;61.79
4085;BME280;2057;50.858;6.572;2023-07-13T11:01:13;100518.44;;;21.59;61.96
4085;BME280;2057;50.858;6.572;2023-07-13T11:09:07;100518.94;;;21.03;63.52
4085;BME280;2057;50.858;6.572;2023-07-13T11:11:33;100525.81;;;20.97;62.97
4085;BME280;2057;50.858;6.572;2023-07-13T11:14:03;100519.75;;;20.92;64.83
4085;BME280;2057;50.858;6.572;2023-07-13T11:16:44;100517.31;;;21.11;65.08
4085;BME280;2057;50.858;6.572;2023-07-13T11:24:57;100519.81;;;21.03;62.61
4085;BME280;2057;50.858;6.572;2023-07-13T11:27:42;100527.50;;;20.94;61.33
4085;BME280;2057;50.858;6.572;2023-07-13T11:33:11;100525.06;;;21.12;62.46
4085;BME280;2057;50.858;6.572;2023-07-13T11:35:58;100518.09;;;21.02;63.59
4085;BME280;2057;50.858;6.572;2023-07-13T11:38:32;100520.63;;;20.93;64.22
4085;BME280;2057;50.858;6.572;2023-07-13T11:41:02;100524.13;;;21.06;64.54
4085;BME280;2057;50.858;6.572;2023-07-13T11:43:29;100516.44;;;21.15;64.66
4085;BME280;2057;50.858;6.572;2023-07-13T11:48:58;100512.28;;;21.43;62.19
4085;BME280;2057;50.858;6.572;2023-07-13T11:51:28;100508.97;;;21.65;62.00
4085;BME280;2057;50.858;6.572;2023-07-13T11:53:56;100522.81;;;21.82;61.34
4085;BME280;2057;50.858;6.572;2023-07-13T11:56:24;100516.72;;;21.63;59.97
4085;BME280;2057;50.858;6.572;2023-07-13T11:58:52;100521.03;;;21.64;58.95
4085;BME280;2057;50.858;6.572;2023-07-13T12:01:22;100520.00;;;21.37;59.88
4085;BME280;2057;50.858;6.572;2023-07-13T12:03:51;100520.88;;;21.38;59.92
4085;BME280;2057;50.858;6.572;2023-07-13T12:06:26;100510.47;;;21.22;61.52
4085;BME280;2057;50.858;6.572;2023-07-13T12:08:57;100512.28;;;21.42;61.74
4085;BME280;2057;50.858;6.572;2023-07-13T12:11:23;100515.69;;;21.30;60.24
4085;BME280;2057;50.858;6.572;2023-07-13T12:13:49;100517.28;;;21.08;60.80
4085;BME280;2057;50.858;6.572;2023-07-13T12:16:21;100509.66;;;21.34;60.68
4085;BME280;2057;50.858;6.572;2023-07-13T12:18:51;100510.56;;;21.47;60.09
4085;BME280;2057;50.858;6.572;2023-07-13T12:21:18;100504.44;;;21.22;60.30
4085;BME280;2057;50.858;6.572;2023-07-13T12:23:47;100510.56;;;21.41;60.24
4085;BME280;2057;50.858;6.572;2023-07-13T12:26:17;100511.47;;;21.55;59.41
4085;BME280;2057;50.858;6.572;2023-07-13T12:28:49;100524.56;;;21.92;59.89
4085;BME280;2057;50.858;6.572;2023-07-13T12:31:34;100511.66;;;22.02;58.58
4085;BME280;2057;50.858;6.572;2023-07-13T12:34:07;100518.56;;;22.20;58.11
4085;BME280;2057;50.858;6.572;2023-07-13T12:36:35;100519.47;;;22.36;56.78
4085;BME280;2057;50.858;6.572;2023-07-13T12:39:06;100506.53;;;22.39;55.09
4085;BME280;2057;50.858;6.572;2023-07-13T12:41:37;100513.44;;;22.59;55.85
4085;BME280;2057;50.858;6.572;2023-07-13T12:44:02;100511.75;;;22.59;53.96
4085;BME280;2057;50.858;6.572;2023-07-13T12:46:28;100501.38;;;22.87;55.45
4085;BME280;2057;50.858;6.572;2023-07-13T12:48:54;100505.69;;;22.80;54.78
4085;BME280;2057;50.858;6.572;2023-07-13T12:51:26;100517.78;;;22.50;56.05
4085;BME280;2057;50.858;6.572;2023-07-13T12:54:16;100504.81;;;22.69;56.39
4085;BME280;2057;50.858;6.572;2023-07-13T12:56:42;100503.09;;;22.66;55.16
4085;BME280;2057;50.858;6.572;2023-07-13T12:59:18;100500.47;;;22.99;55.05
4085;BME280;2057;50.858;6.572;2023-07-13T13:01:44;100502.16;;;23.29;54.85
4085;BME280;2057;50.858;6.572;2023-07-13T13:04:11;100507.38;;;23.14;53.82
4085;BME280;2057;50.858;6.572;2023-07-13T13:06:40;100501.22;;;23.47;53.35
4085;BME280;2057;50.858;6.572;2023-07-13T13:09:12;100509.16;;;22.82;53.36
4085;BME280;2057;50.858;6.572;2023-07-13T13:11:38;100511.69;;;23.10;53.18
4085;BME280;2057;50.858;6.572;2023-07-13T13:14:12;100508.19;;;23.33;53.53
4085;BME280;2057;50.858;6.572;2023-07-13T13:16:49;100491.00;;;22.85;52.21
4085;BME280;2057;50.858;6.572;2023-07-13T13:19:33;100498.72;;;23.07;53.77
4085;BME280;2057;50.858;6.572;2023-07-13T13:21:59;100500.31;;;23.61;52.13
4085;BME280;2057;50.858;6.572;2023-07-13T13:24:27;100495.09;;;23.67;51.61
4085;BME280;2057;50.858;6.572;2023-07-13T13:26:54;100492.63;;;23.34;52.88
4085;BME280;2057;50.858;6.572;2023-07-13T13:29:23;100501.28;;;23.30;51.64
4085;BME280;2057;50.858;6.572;2023-07-13T13:31:50;100488.22;;;23.58;51.37
4085;BME280;2057;50.858;6.572;2023-07-13T13:34:17;100496.00;;;23.57;50.17
4085;BME280;2057;50.858;6.572;2023-07-13T13:36:43;100499.28;;;23.85;50.15
4085;BME280;2057;50.858;6.572;2023-07-13T13:39:34;100492.13;;;24.31;50.61
4085;BME280;2057;50.858;6.572;2023-07-13T13:42:00;100494.88;;;24.06;50.07
4085;BME280;2057;50.858;6.572;2023-07-13T13:44:25;100484.41;;;24.20;50.00
4085;BME280;2057;50.858;6.572;2023-07-13T13:46:54;100497.53;;;23.92;49.39
4085;BME280;2057;50.858;6.572;2023-07-13T13:49:26;100498.44;;;23.85;49.66
4085;BME280;2057;50.858;6.572;2023-07-13T13:51:52;100497.50;;;24.01;49.38
4085;BME280;2057;50.858;6.572;2023-07-13T13:54:22;100501.09;;;23.74;50.69